createdAt,value
2023-01-15T00:01:30.201Z,8.88
2023-01-15T00:03:59.606Z,8.15
2023-01-15T00:06:28.504Z,8.52
2023-01-15T00:08:56.184Z,9.07
2023-01-15T00:11:23.943Z,8.50
2023-01-15T00:13:51.704Z,9.25
2023-01-15T00:16:23.230Z,9.00
2023-01-15T00:18:52.427Z,9.50
2023-01-15T00:21:21.303Z,9.27
2023-01-15T00:24:07.463Z,9.07
2023-01-15T00:26:54.265Z,8.50
2023-01-15T00:29:22.665Z,8.43
2023-01-15T00:32:02.913Z,7.68
2023-01-15T00:34:31.623Z,7.60
2023-01-15T00:36:59.221Z,7.72
2023-01-15T00:39:27.224Z,7.82
2023-01-15T00:41:55.711Z,7.88
2023-01-15T00:44:22.979Z,7.63
2023-01-15T00:46:52.183Z,8.45
2023-01-15T00:49:21.628Z,7.63
2023-01-15T00:51:50.236Z,7.28
2023-01-15T00:54:18.138Z,6.18
2023-01-15T00:56:45.810Z,8.20
2023-01-15T00:59:13.145Z,6.53
2023-01-15T01:01:40.382Z,6.63
2023-01-15T01:04:07.865Z,6.53
2023-01-15T01:06:35.462Z,6.22
2023-01-15T01:09:02.835Z,6.25
2023-01-15T01:11:34.585Z,5.97
2023-01-15T01:14:02.918Z,6.13
2023-01-15T01:16:36.115Z,6.75
2023-01-15T01:19:09.147Z,6.50
2023-01-15T01:24:05.065Z,6.00
2023-01-15T01:26:32.187Z,6.10
2023-01-15T01:28:59.315Z,6.00
2023-01-15T01:31:26.709Z,6.07
2023-01-15T01:33:56.663Z,6.07
2023-01-15T01:36:33.148Z,5.55
2023-01-15T01:39:01.468Z,5.65
2023-01-15T01:41:29.627Z,5.85
2023-01-15T01:44:03.150Z,6.15
2023-01-15T01:46:33.148Z,5.68
2023-01-15T01:49:13.145Z,6.03
2023-01-15T01:52:09.625Z,5.75
2023-01-15T01:54:38.912Z,5.90
2023-01-15T01:57:08.985Z,6.30
2023-01-15T01:59:38.425Z,6.18
2023-01-15T02:02:06.553Z,5.97
2023-01-15T02:04:34.422Z,6.20
2023-01-15T02:07:02.445Z,6.53
2023-01-15T02:09:29.789Z,6.65
2023-01-15T02:12:14.423Z,6.03
2023-01-15T02:15:03.385Z,6.38
2023-01-15T02:17:43.622Z,6.22
2023-01-15T02:20:29.303Z,5.70
2023-01-15T02:23:04.352Z,6.03
2023-01-15T02:25:42.928Z,6.18
2023-01-15T02:28:14.193Z,6.00
2023-01-15T02:30:46.427Z,6.30
2023-01-15T02:33:26.905Z,5.70
2023-01-15T02:36:01.234Z,5.95
2023-01-15T02:38:36.584Z,6.47
2023-01-15T02:41:07.712Z,5.93
2023-01-15T02:43:40.183Z,5.93
2023-01-15T02:46:09.414Z,6.10
2023-01-15T02:48:39.493Z,6.20
2023-01-15T02:51:23.556Z,6.20
2023-01-15T02:53:55.419Z,5.75
2023-01-15T02:56:28.540Z,6.15
2023-01-15T02:59:01.173Z,5.78
2023-01-15T03:01:34.191Z,5.32
2023-01-15T03:07:05.250Z,5.25
2023-01-15T03:09:34.737Z,4.80
2023-01-15T03:12:16.533Z,5.65
2023-01-15T03:15:39.252Z,5.50
2023-01-15T03:18:10.112Z,5.32
2023-01-15T03:20:38.612Z,5.55
2023-01-15T03:23:11.494Z,5.88
2023-01-15T03:25:48.056Z,5.15
2023-01-15T03:28:20.101Z,5.30
2023-01-15T03:30:48.593Z,5.60
2023-01-15T03:33:15.575Z,5.18
2023-01-15T03:35:50.145Z,5.50
2023-01-15T03:38:46.947Z,5.07
2023-01-15T03:41:43.668Z,5.68
2023-01-15T03:44:20.011Z,6.20
2023-01-15T03:47:31.572Z,5.72
2023-01-15T03:50:23.579Z,5.70
2023-01-15T03:53:09.739Z,5.78
2023-01-15T03:55:52.691Z,6.07
2023-01-15T03:58:45.573Z,5.60
2023-01-15T04:01:19.414Z,5.30
2023-01-15T04:03:50.069Z,5.80
2023-01-15T04:06:19.174Z,5.57
2023-01-15T04:08:47.573Z,6.05
2023-01-15T04:11:24.595Z,5.38
2023-01-15T04:13:54.960Z,5.32
2023-01-15T04:16:37.411Z,5.07
2023-01-15T04:19:04.157Z,5.00
2023-01-15T04:21:34.141Z,4.82
2023-01-15T04:24:00.852Z,4.22
2023-01-15T04:26:27.751Z,4.40
2023-01-15T04:28:55.422Z,4.68
2023-01-15T04:31:22.420Z,4.88
2023-01-15T04:33:49.375Z,4.90
2023-01-15T04:36:16.136Z,4.35
2023-01-15T04:38:43.029Z,4.63
2023-01-15T04:41:29.059Z,5.00
2023-01-15T04:44:08.417Z,4.97
2023-01-15T04:46:46.315Z,5.20
2023-01-15T04:49:16.640Z,4.93
2023-01-15T04:51:44.106Z,4.38
2023-01-15T04:54:12.754Z,5.05
2023-01-15T04:56:50.374Z,4.45
2023-01-15T04:59:21.493Z,4.35
2023-01-15T05:02:02.680Z,4.43
2023-01-15T05:04:32.040Z,5.07
2023-01-15T05:06:59.037Z,4.45
2023-01-15T05:09:25.814Z,4.68
2023-01-15T05:11:52.686Z,4.95
2023-01-15T05:14:19.528Z,4.40
2023-01-15T05:16:46.320Z,4.45
2023-01-15T05:19:13.405Z,4.65
2023-01-15T05:21:42.575Z,4.32
2023-01-15T05:24:13.906Z,5.03
2023-01-15T05:26:41.428Z,4.43
2023-01-15T05:29:08.596Z,4.53
2023-01-15T05:31:35.760Z,5.13
2023-01-15T05:34:03.389Z,5.10
2023-01-15T05:36:32.188Z,4.43
2023-01-15T05:39:02.512Z,5.88
2023-01-15T05:41:49.241Z,4.20
2023-01-15T05:44:25.859Z,4.10
2023-01-15T05:46:56.252Z,4.80
2023-01-15T05:49:26.321Z,4.75
2023-01-15T05:51:54.218Z,4.47
2023-01-15T05:54:26.759Z,4.53
2023-01-15T05:56:53.949Z,5.18
2023-01-15T05:59:24.020Z,4.72
2023-01-15T06:01:51.637Z,4.10
2023-01-15T06:04:21.389Z,4.82
2023-01-15T06:06:50.416Z,4.95
2023-01-15T06:09:18.348Z,4.60
2023-01-15T06:11:46.020Z,4.80
2023-01-15T06:14:13.374Z,4.95
2023-01-15T06:16:41.565Z,4.85
2023-01-15T06:19:11.135Z,5.32
2023-01-15T06:21:38.429Z,10.50
2023-01-15T06:24:06.105Z,12.43
2023-01-15T06:26:33.954Z,13.18
2023-01-15T06:29:01.145Z,12.73
2023-01-15T06:31:28.237Z,10.65
2023-01-15T06:33:56.593Z,8.23
2023-01-15T06:36:27.322Z,6.47
2023-01-15T06:38:55.382Z,6.38
2023-01-15T06:41:44.111Z,5.82
2023-01-15T06:44:32.904Z,5.60
2023-01-15T06:47:22.347Z,5.03
2023-01-15T06:49:55.442Z,4.85
2023-01-15T06:52:24.601Z,5.40
2023-01-15T06:54:52.440Z,3.95
2023-01-15T06:57:20.377Z,3.90
2023-01-15T06:59:48.659Z,4.63
2023-01-15T07:02:16.259Z,5.60
2023-01-15T07:04:43.619Z,5.15
2023-01-15T07:07:10.903Z,5.60
2023-01-15T07:09:38.102Z,6.13
2023-01-15T07:12:05.303Z,6.38
2023-01-15T07:14:33.296Z,5.80
2023-01-15T07:17:00.445Z,5.72
2023-01-15T07:19:28.107Z,5.10
2023-01-15T07:21:55.238Z,4.88
2023-01-15T07:24:22.463Z,4.95
2023-01-15T07:26:52.025Z,4.80
2023-01-15T07:29:19.706Z,4.53
2023-01-15T07:31:46.982Z,4.78
2023-01-15T07:34:14.259Z,4.80
2023-01-15T07:36:41.548Z,4.85
2023-01-15T07:39:10.542Z,4.38
2023-01-15T07:41:56.753Z,4.30
2023-01-15T07:44:43.790Z,4.63
2023-01-15T07:47:43.544Z,5.75
2023-01-15T07:50:18.271Z,4.25
2023-01-15T07:52:45.491Z,3.80
2023-01-15T07:55:13.736Z,4.40
2023-01-15T07:57:42.430Z,3.67
2023-01-15T08:00:15.556Z,4.57
2023-01-15T08:05:12.582Z,4.15
2023-01-15T08:07:41.383Z,4.00
2023-01-15T08:10:10.439Z,4.53
2023-01-15T08:12:57.531Z,4.00
2023-01-15T08:15:26.041Z,4.60
2023-01-15T08:17:53.702Z,5.38
2023-01-15T08:20:26.385Z,11.30
2023-01-15T08:22:54.023Z,15.60
2023-01-15T08:25:24.192Z,13.82
2023-01-15T08:27:51.707Z,12.32
2023-01-15T08:30:22.344Z,10.57
2023-01-15T08:32:49.938Z,7.47
2023-01-15T08:35:17.220Z,6.60
2023-01-15T08:37:44.676Z,6.18
2023-01-15T08:40:12.260Z,5.80
2023-01-15T08:42:39.671Z,4.72
2023-01-15T08:45:07.467Z,4.25
2023-01-15T08:47:34.419Z,4.65
2023-01-15T08:50:01.563Z,4.78
2023-01-15T08:52:28.431Z,4.95
2023-01-15T08:54:57.075Z,5.15
2023-01-15T08:57:24.342Z,4.88
2023-01-15T08:59:51.467Z,5.25
2023-01-15T09:02:18.748Z,4.82
2023-01-15T09:04:46.052Z,4.93
2023-01-15T09:07:13.362Z,4.95
2023-01-15T09:09:40.906Z,4.88
2023-01-15T09:12:08.020Z,4.28
2023-01-15T09:14:58.728Z,4.60
2023-01-15T09:17:22.422Z,4.32
2023-01-15T09:19:49.539Z,4.78
2023-01-15T09:22:16.668Z,5.20
2023-01-15T09:24:44.139Z,5.57
2023-01-15T09:27:15.549Z,5.55
2023-01-15T09:29:42.847Z,5.10
2023-01-15T09:32:10.796Z,5.05
2023-01-15T09:34:37.939Z,6.10
2023-01-15T09:37:05.141Z,5.63
2023-01-15T09:39:32.505Z,5.72
2023-01-15T09:42:43.538Z,5.45
2023-01-15T09:45:23.089Z,7.03
2023-01-15T09:48:19.007Z,5.30
2023-01-15T09:51:16.126Z,4.68
2023-01-15T09:54:41.937Z,4.35
2023-01-15T09:57:13.307Z,4.60
2023-01-15T09:59:44.991Z,4.72
2023-01-15T10:02:27.221Z,4.63
2023-01-15T10:05:05.233Z,4.22
2023-01-15T10:07:58.840Z,4.30
2023-01-15T10:10:34.203Z,5.78
2023-01-15T10:13:12.187Z,5.45
2023-01-15T10:15:46.890Z,4.80
2023-01-15T10:18:25.308Z,4.95
2023-01-15T10:21:11.310Z,4.63
2023-01-15T10:24:15.379Z,4.50
2023-01-15T10:26:56.347Z,4.47
2023-01-15T10:29:35.648Z,4.43
2023-01-15T10:32:25.699Z,4.35
2023-01-15T10:35:14.902Z,4.70
2023-01-15T10:37:50.746Z,5.18
2023-01-15T10:40:44.823Z,5.13
2023-01-15T10:43:24.421Z,5.15
2023-01-15T10:45:59.229Z,4.70
2023-01-15T10:51:24.346Z,4.35
2023-01-15T10:53:59.144Z,4.97
2023-01-15T10:56:47.661Z,5.30
2023-01-15T10:59:31.324Z,4.97
2023-01-15T11:02:00.371Z,4.82
2023-01-15T11:04:32.927Z,4.53
2023-01-15T11:07:01.410Z,5.03
2023-01-15T11:09:36.290Z,4.38
2023-01-15T11:12:23.722Z,4.63
2023-01-15T11:15:09.242Z,4.43
2023-01-15T11:18:00.233Z,4.00
2023-01-15T11:20:34.921Z,5.50
2023-01-15T11:23:11.802Z,6.55
2023-01-15T11:25:48.522Z,7.75
2023-01-15T11:28:16.611Z,5.95
2023-01-15T11:30:45.490Z,5.30
2023-01-15T11:33:28.280Z,5.53
2023-01-15T11:36:01.185Z,4.97
2023-01-15T11:38:43.533Z,4.90
2023-01-15T11:41:50.684Z,4.65
2023-01-15T11:44:42.286Z,5.00
2023-01-15T11:47:33.008Z,4.72
2023-01-15T11:50:18.856Z,4.45
2023-01-15T11:52:51.320Z,4.72
2023-01-15T11:55:21.697Z,4.40
2023-01-15T11:57:51.322Z,5.10
2023-01-15T12:00:24.122Z,4.70
2023-01-15T12:02:55.323Z,4.50
2023-01-15T12:05:27.563Z,5.15
2023-01-15T12:07:58.457Z,5.00
2023-01-15T12:10:50.363Z,4.85
2023-01-15T12:13:36.042Z,5.00
2023-01-15T12:16:28.214Z,4.90
2023-01-15T12:18:59.310Z,5.40
2023-01-15T12:21:55.887Z,5.30
2023-01-15T12:24:41.580Z,5.75
2023-01-15T12:27:36.443Z,6.47
2023-01-15T12:30:19.331Z,5.40
2023-01-15T12:33:00.923Z,4.68
2023-01-15T12:35:32.292Z,5.57
2023-01-15T12:38:17.908Z,5.30
2023-01-15T12:41:02.362Z,5.65
2023-01-15T12:43:48.207Z,5.25
2023-01-15T12:46:21.808Z,5.75
2023-01-15T12:49:15.004Z,5.10
2023-01-15T12:51:57.969Z,5.65
2023-01-15T12:54:34.603Z,4.88
2023-01-15T12:57:15.324Z,5.78
2023-01-15T13:00:15.092Z,5.65
2023-01-15T13:03:16.977Z,5.60
2023-01-15T13:05:48.761Z,5.80
2023-01-15T13:08:41.724Z,5.70
2023-01-15T13:11:13.398Z,5.43
2023-01-15T13:13:43.014Z,6.10
2023-01-15T13:16:23.128Z,5.35
2023-01-15T13:19:02.212Z,4.95
2023-01-15T13:21:34.341Z,5.45
2023-01-15T13:24:12.926Z,5.90
2023-01-15T13:26:49.187Z,5.50
2023-01-15T13:29:26.207Z,6.10
2023-01-15T13:32:11.482Z,5.03
2023-01-15T13:34:56.767Z,5.60
2023-01-15T13:37:41.413Z,5.45
2023-01-15T13:40:29.577Z,5.68
2023-01-15T13:42:59.962Z,5.35
2023-01-15T13:45:43.927Z,5.30
2023-01-15T13:48:35.163Z,5.65
2023-01-15T13:51:05.244Z,6.65
2023-01-15T13:53:44.773Z,7.68
2023-01-15T13:56:15.883Z,5.68
2023-01-15T13:59:00.381Z,5.78
2023-01-15T14:01:30.365Z,6.82
2023-01-15T14:04:13.647Z,6.90
2023-01-15T14:06:45.882Z,8.13
2023-01-15T14:09:29.880Z,7.80
2023-01-15T14:12:45.407Z,6.45
2023-01-15T14:15:39.323Z,6.75
2023-01-15T14:18:14.963Z,8.45
2023-01-15T14:21:07.916Z,8.15
2023-01-15T14:23:46.449Z,7.10
2023-01-15T14:26:42.456Z,8.45
2023-01-15T14:29:44.452Z,7.93
2023-01-15T14:32:33.168Z,7.50
2023-01-15T14:35:02.701Z,7.78
2023-01-15T14:38:14.074Z,8.40
2023-01-15T14:41:07.411Z,8.43
2023-01-15T14:43:38.053Z,10.10
2023-01-15T14:46:26.671Z,10.23
2023-01-15T14:48:53.885Z,10.35
2023-01-15T14:51:30.603Z,9.70
2023-01-15T14:54:02.604Z,10.07
2023-01-15T14:56:32.764Z,9.47
2023-01-15T14:59:02.611Z,9.45
2023-01-15T15:01:52.319Z,8.90
2023-01-15T15:04:28.585Z,8.30
2023-01-15T15:06:58.607Z,8.88
2023-01-15T15:09:36.818Z,18.25
2023-01-15T15:12:42.601Z,16.27
2023-01-15T15:15:20.522Z,14.57
2023-01-15T15:18:06.442Z,15.45
2023-01-15T15:20:42.762Z,13.35
2023-01-15T15:23:26.128Z,13.63
2023-01-15T15:28:28.295Z,13.15
2023-01-15T15:31:01.754Z,11.98
2023-01-15T15:33:42.379Z,13.88
2023-01-15T15:36:11.513Z,14.43
2023-01-15T15:38:44.923Z,12.00
2023-01-15T15:41:13.565Z,11.57
2023-01-15T15:44:11.173Z,10.63
2023-01-15T15:46:57.388Z,10.50
2023-01-15T15:49:25.013Z,9.65
2023-01-15T15:51:53.961Z,9.02
2023-01-15T15:54:31.646Z,9.63
2023-01-15T15:57:13.562Z,9.75
2023-01-15T15:59:51.486Z,9.85
2023-01-15T16:02:31.683Z,9.63
2023-01-15T16:05:01.646Z,10.23
2023-01-15T16:07:36.486Z,11.18
2023-01-15T16:10:17.088Z,11.27
2023-01-15T16:12:57.087Z,11.02
2023-01-15T16:15:41.755Z,13.02
2023-01-15T16:18:44.768Z,14.85
2023-01-15T16:21:19.819Z,12.48
2023-01-15T16:24:09.079Z,11.90
2023-01-15T16:26:48.364Z,11.48
2023-01-15T16:29:25.008Z,11.50
2023-01-15T16:31:57.250Z,11.45
2023-01-15T16:34:29.808Z,11.10
2023-01-15T16:36:57.802Z,11.38
2023-01-15T16:39:29.417Z,11.38
2023-01-15T16:42:02.765Z,10.93
2023-01-15T16:44:48.132Z,10.80
2023-01-15T16:47:26.025Z,12.23
2023-01-15T16:49:53.660Z,11.02
2023-01-15T16:52:39.083Z,10.73
2023-01-15T16:55:36.561Z,10.40
2023-01-15T16:58:23.544Z,8.82
2023-01-15T17:03:43.069Z,8.65
2023-01-15T17:06:13.300Z,9.70
2023-01-15T17:08:49.203Z,9.57
2023-01-15T17:11:21.555Z,8.60
2023-01-15T17:13:48.869Z,8.23
2023-01-15T17:16:21.738Z,9.07
2023-01-15T17:18:50.701Z,8.82
2023-01-15T17:21:27.818Z,9.85
2023-01-15T17:23:57.197Z,9.38
2023-01-15T17:26:25.990Z,9.32
2023-01-15T17:28:53.333Z,8.93
2023-01-15T17:31:30.690Z,8.95
2023-01-15T17:33:59.992Z,8.85
2023-01-15T17:36:28.461Z,8.48
2023-01-15T17:38:56.064Z,9.90
2023-01-15T17:41:23.658Z,10.35
2023-01-15T17:43:51.098Z,10.00
2023-01-15T17:46:18.639Z,9.57
2023-01-15T17:48:45.825Z,10.00
2023-01-15T17:51:15.125Z,9.15
2023-01-15T17:53:42.545Z,9.88
2023-01-15T17:56:28.323Z,10.70
2023-01-15T17:59:13.978Z,11.48
2023-01-15T18:02:03.037Z,10.73
2023-01-15T18:05:00.780Z,12.00
2023-01-15T18:07:34.075Z,10.93
2023-01-15T18:10:02.241Z,10.88
2023-01-15T18:12:29.420Z,12.82
2023-01-15T18:14:56.380Z,14.25
2023-01-15T18:17:23.517Z,14.35
2023-01-15T18:19:50.466Z,14.20
2023-01-15T18:22:19.035Z,14.02
2023-01-15T18:24:46.863Z,13.15
2023-01-15T18:27:14.059Z,12.75
2023-01-15T18:29:41.342Z,12.45
2023-01-15T18:32:09.350Z,13.82
2023-01-15T18:34:37.418Z,12.98
2023-01-15T18:37:05.097Z,13.45
2023-01-15T18:39:32.383Z,13.35
2023-01-15T18:41:59.429Z,12.48
2023-01-15T18:44:45.183Z,11.98
2023-01-15T18:47:17.828Z,12.00
2023-01-15T18:49:46.713Z,12.35
2023-01-15T18:52:34.779Z,12.70
2023-01-15T18:55:02.864Z,12.30
2023-01-15T18:57:32.802Z,12.73
2023-01-15T18:59:59.988Z,12.30
2023-01-15T19:02:27.110Z,13.35
2023-01-15T19:04:54.308Z,13.77
2023-01-15T19:07:21.898Z,13.43
2023-01-15T19:09:49.100Z,13.48
2023-01-15T19:12:17.299Z,12.82
2023-01-15T19:15:03.294Z,14.55
2023-01-15T19:17:48.952Z,13.27
2023-01-15T19:20:18.219Z,13.35
2023-01-15T19:23:05.308Z,14.20
2023-01-15T19:25:40.466Z,13.13
2023-01-15T19:28:09.425Z,12.70
2023-01-15T19:30:39.200Z,13.52
2023-01-15T19:33:07.841Z,12.93
2023-01-15T19:35:37.903Z,13.23
2023-01-15T19:38:08.459Z,13.65
2023-01-15T19:40:40.825Z,13.00
2023-01-15T19:43:26.389Z,14.35
2023-01-15T19:46:12.259Z,13.50
2023-01-15T19:48:58.139Z,14.20
2023-01-15T19:51:48.647Z,15.52
2023-01-15T19:54:35.671Z,14.55
2023-01-15T19:57:02.869Z,14.25
2023-01-15T19:59:29.739Z,13.93
2023-01-15T20:01:56.926Z,12.13
2023-01-15T20:04:24.389Z,13.38
2023-01-15T20:06:53.803Z,12.27
2023-01-15T20:09:21.017Z,12.02
2023-01-15T20:12:06.859Z,12.40
2023-01-15T20:14:34.142Z,12.75
2023-01-15T20:17:01.186Z,12.10
2023-01-15T20:19:28.316Z,11.90
2023-01-15T20:22:00.136Z,12.63
2023-01-15T20:24:30.776Z,12.98
2023-01-15T20:27:02.618Z,12.65
2023-01-15T20:29:29.737Z,14.13
2023-01-15T20:31:56.809Z,14.15
2023-01-15T20:34:24.065Z,12.32
2023-01-15T20:36:51.020Z,12.60
2023-01-15T20:39:18.546Z,11.90
2023-01-15T20:42:03.901Z,10.55
2023-01-15T20:44:49.578Z,12.32
2023-01-15T20:47:36.343Z,10.38
2023-01-15T20:50:07.054Z,11.00
2023-01-15T20:52:35.022Z,12.10
2023-01-15T20:55:02.973Z,11.48
2023-01-15T20:57:33.578Z,12.32
2023-01-15T21:00:00.625Z,11.70
2023-01-15T21:02:27.647Z,12.70
2023-01-15T21:04:54.617Z,13.00
2023-01-15T21:07:21.666Z,14.57
2023-01-15T21:09:48.708Z,15.15
2023-01-15T21:12:17.540Z,15.07
2023-01-15T21:14:44.628Z,16.80
2023-01-15T21:17:11.582Z,16.85
2023-01-15T21:19:38.701Z,16.30
2023-01-15T21:22:05.912Z,16.98
2023-01-15T21:24:34.715Z,15.35
2023-01-15T21:27:01.827Z,14.00
2023-01-15T21:29:28.948Z,15.02
2023-01-15T21:31:56.179Z,16.17
2023-01-15T21:34:23.344Z,14.90
2023-01-15T21:36:50.377Z,14.48
2023-01-15T21:39:18.216Z,15.52
2023-01-15T21:42:04.141Z,15.57
2023-01-15T21:44:35.993Z,15.30
2023-01-15T21:47:09.421Z,15.52
2023-01-15T21:49:36.698Z,14.32
2023-01-15T21:52:06.777Z,14.15
2023-01-15T21:54:35.102Z,14.68
2023-01-15T21:57:02.460Z,12.25
2023-01-15T21:59:30.069Z,8.70
2023-01-15T22:01:59.075Z,9.10
2023-01-15T22:04:28.400Z,4.55
2023-01-15T22:06:55.823Z,2.00
2023-01-15T22:09:23.508Z,0.93
2023-01-15T22:11:52.761Z,0.50
2023-01-15T22:14:25.108Z,0.32
2023-01-15T22:16:54.397Z,0.52
2023-01-15T22:19:23.828Z,0.25
2023-01-15T22:21:59.192Z,0.20
2023-01-15T22:24:28.218Z,0.40
2023-01-15T22:26:56.072Z,0.30
2023-01-15T22:29:28.544Z,0.10
2023-01-15T22:31:56.059Z,0.10
2023-01-15T22:34:24.379Z,0.05
2023-01-15T22:36:52.867Z,0.10
2023-01-15T22:39:21.196Z,0.20
2023-01-15T22:42:06.839Z,0.73
2023-01-15T22:44:34.708Z,0.90
2023-01-15T22:47:02.780Z,1.60
2023-01-15T22:49:30.376Z,1.40
2023-01-15T22:51:57.342Z,1.40
2023-01-15T22:54:24.544Z,1.17
2023-01-15T22:56:51.550Z,1.17
2023-01-15T22:59:19.267Z,1.20
2023-01-15T23:01:46.907Z,1.50
2023-01-15T23:04:21.870Z,1.35
2023-01-15T23:06:51.584Z,1.35
2023-01-15T23:09:23.515Z,1.48
2023-01-15T23:11:53.977Z,1.30
2023-01-15T23:14:21.899Z,1.52
2023-01-15T23:16:50.218Z,1.50
2023-01-15T23:19:18.390Z,1.50
2023-01-15T23:21:45.711Z,1.30
2023-01-15T23:24:12.627Z,1.60
2023-01-15T23:26:39.864Z,1.30
2023-01-15T23:29:06.951Z,1.75
2023-01-15T23:31:34.783Z,1.40
2023-01-15T23:34:02.007Z,1.10
2023-01-15T23:36:29.170Z,1.23
2023-01-15T23:38:56.301Z,1.40
2023-01-15T23:41:43.267Z,1.30
2023-01-15T23:44:37.897Z,0.60
2023-01-15T23:47:06.652Z,0.70
2023-01-15T23:49:33.980Z,0.88
2023-01-15T23:52:01.918Z,0.60
2023-01-15T23:54:30.140Z,0.80
2023-01-15T23:56:59.196Z,0.70
2023-01-15T23:59:27.188Z,0.50
